sensor_id;sensor_type;location;lat;lon;timestamp;P1;durP1;ratioP1;P2;durP2;ratioP2
11522;SDS011;70090;43.208;27.904;2024-03-08T00:01:01;28.57;;;20.47;;
11522;SDS011;70090;43.208;27.904;2024-03-08T00:03:28;27.17;;;20.23;;
11522;SDS011;70090;43.208;27.904;2024-03-08T00:05:56;30.77;;;19.63;;
11522;SDS011;70090;43.208;27.904;2024-03-08T00:08:23;27.80;;;20.03;;
11522;SDS011;70090;43.208;27.904;2024-03-08T00:10:50;29.50;;;20.37;;
11522;SDS011;70090;43.208;27.904;2024-03-08T00:13:17;28.00;;;19.80;;
11522;SDS011;70090;43.208;27.904;2024-03-08T00:15:44;29.27;;;20.47;;
11522;SDS011;70090;43.208;27.904;2024-03-08T00:18:13;29.27;;;20.00;;
11522;SDS011;70090;43.208;27.904;2024-03-08T00:20:40;27.20;;;20.00;;
11522;SDS011;70090;43.208;27.904;2024-03-08T00:23:07;26.57;;;18.97;;
11522;SDS011;70090;43.208;27.904;2024-03-08T00:25:36;28.60;;;19.53;;
11522;SDS011;70090;43.208;27.904;2024-03-08T00:28:04;26.23;;;20.03;;
11522;SDS011;70090;43.208;27.904;2024-03-08T00:30:31;28.87;;;20.00;;
11522;SDS011;70090;43.208;27.904;2024-03-08T00:32:58;25.83;;;19.60;;
11522;SDS011;70090;43.208;27.904;2024-03-08T00:35:27;24.17;;;19.13;;
11522;SDS011;70090;43.208;27.904;2024-03-08T00:37:54;25.83;;;19.17;;
11522;SDS011;70090;43.208;27.904;2024-03-08T00:40:21;27.63;;;18.93;;
11522;SDS011;70090;43.208;27.904;2024-03-08T00:42:49;31.03;;;19.60;;
11522;SDS011;70090;43.208;27.904;2024-03-08T00:45:16;28.53;;;19.40;;
11522;SDS011;70090;43.208;27.904;2024-03-08T00:47:43;29.23;;;19.20;;
11522;SDS011;70090;43.208;27.904;2024-03-08T00:50:10;25.60;;;19.10;;
11522;SDS011;70090;43.208;27.904;2024-03-08T00:52:39;25.13;;;19.13;;
11522;SDS011;70090;43.208;27.904;2024-03-08T00:55:06;25.07;;;19.47;;
11522;SDS011;70090;43.208;27.904;2024-03-08T00:57:35;29.73;;;19.67;;
11522;SDS011;70090;43.208;27.904;2024-03-08T01:00:04;26.53;;;19.03;;
11522;SDS011;70090;43.208;27.904;2024-03-08T01:02:34;27.13;;;18.43;;
11522;SDS011;70090;43.208;27.904;2024-03-08T01:05:02;25.80;;;19.47;;
11522;SDS011;70090;43.208;27.904;2024-03-08T01:07:29;25.03;;;19.30;;
11522;SDS011;70090;43.208;27.904;2024-03-08T01:09:58;29.10;;;19.13;;
11522;SDS011;70090;43.208;27.904;2024-03-08T01:12:25;27.93;;;19.20;;
11522;SDS011;70090;43.208;27.904;2024-03-08T01:14:53;26.43;;;18.77;;
11522;SDS011;70090;43.208;27.904;2024-03-08T01:17:20;28.53;;;19.67;;
11522;SDS011;70090;43.208;27.904;2024-03-08T01:19:47;29.27;;;20.33;;
11522;SDS011;70090;43.208;27.904;2024-03-08T01:22:14;26.83;;;18.67;;
11522;SDS011;70090;43.208;27.904;2024-03-08T01:24:41;27.80;;;19.33;;
11522;SDS011;70090;43.208;27.904;2024-03-08T01:27:09;25.83;;;18.93;;
11522;SDS011;70090;43.208;27.904;2024-03-08T01:29:37;24.30;;;18.50;;
11522;SDS011;70090;43.208;27.904;2024-03-08T01:32:04;23.80;;;18.47;;
11522;SDS011;70090;43.208;27.904;2024-03-08T01:34:32;27.27;;;18.17;;
11522;SDS011;70090;43.208;27.904;2024-03-08T01:36:59;26.20;;;19.03;;
11522;SDS011;70090;43.208;27.904;2024-03-08T01:39:26;23.20;;;18.63;;
11522;SDS011;70090;43.208;27.904;2024-03-08T01:41:53;26.03;;;17.67;;
11522;SDS011;70090;43.208;27.904;2024-03-08T01:44:22;27.10;;;18.63;;
11522;SDS011;70090;43.208;27.904;2024-03-08T01:46:49;25.17;;;18.17;;
11522;SDS011;70090;43.208;27.904;2024-03-08T01:49:17;28.40;;;18.77;;
11522;SDS011;70090;43.208;27.904;2024-03-08T01:51:46;28.70;;;18.77;;
11522;SDS011;70090;43.208;27.904;2024-03-08T01:54:15;28.00;;;17.90;;
11522;SDS011;70090;43.208;27.904;2024-03-08T01:56:45;27.73;;;19.70;;
11522;SDS011;70090;43.208;27.904;2024-03-08T01:59:12;29.83;;;18.57;;
11522;SDS011;70090;43.208;27.904;2024-03-08T02:01:42;26.33;;;18.63;;
11522;SDS011;70090;43.208;27.904;2024-03-08T02:04:09;26.17;;;19.10;;
11522;SDS011;70090;43.208;27.904;2024-03-08T02:06:36;28.40;;;19.43;;
11522;SDS011;70090;43.208;27.904;2024-03-08T02:09:04;24.60;;;18.57;;
11522;SDS011;70090;43.208;27.904;2024-03-08T02:11:32;26.20;;;18.47;;
11522;SDS011;70090;43.208;27.904;2024-03-08T02:13:59;26.80;;;18.70;;
11522;SDS011;70090;43.208;27.904;2024-03-08T02:16:26;25.27;;;18.43;;
11522;SDS011;70090;43.208;27.904;2024-03-08T02:18:55;28.63;;;18.47;;
11522;SDS011;70090;43.208;27.904;2024-03-08T02:21:24;26.83;;;18.80;;
11522;SDS011;70090;43.208;27.904;2024-03-08T02:23:51;27.53;;;18.77;;
11522;SDS011;70090;43.208;27.904;2024-03-08T02:26:19;24.87;;;17.93;;
11522;SDS011;70090;43.208;27.904;2024-03-08T02:28:46;27.07;;;18.47;;
11522;SDS011;70090;43.208;27.904;2024-03-08T02:31:14;26.87;;;18.53;;
11522;SDS011;70090;43.208;27.904;2024-03-08T02:33:41;24.13;;;17.37;;
11522;SDS011;70090;43.208;27.904;2024-03-08T02:36:08;26.10;;;18.13;;
11522;SDS011;70090;43.208;27.904;2024-03-08T02:38:37;27.17;;;18.23;;
11522;SDS011;70090;43.208;27.904;2024-03-08T02:41:06;26.07;;;17.70;;
11522;SDS011;70090;43.208;27.904;2024-03-08T02:43:34;25.97;;;18.10;;
11522;SDS011;70090;43.208;27.904;2024-03-08T02:46:01;21.60;;;17.10;;
11522;SDS011;70090;43.208;27.904;2024-03-08T02:48:28;27.90;;;17.97;;
11522;SDS011;70090;43.208;27.904;2024-03-08T02:50:55;26.37;;;18.47;;
11522;SDS011;70090;43.208;27.904;2024-03-08T02:53:23;25.17;;;17.97;;
11522;SDS011;70090;43.208;27.904;2024-03-08T02:55:52;25.80;;;18.57;;
11522;SDS011;70090;43.208;27.904;2024-03-08T02:58:20;24.03;;;17.33;;
11522;SDS011;70090;43.208;27.904;2024-03-08T03:00:47;25.90;;;17.07;;
11522;SDS011;70090;43.208;27.904;2024-03-08T03:03:15;26.83;;;18.63;;
11522;SDS011;70090;43.208;27.904;2024-03-08T03:05:42;25.33;;;17.77;;
11522;SDS011;70090;43.208;27.904;2024-03-08T03:08:09;23.93;;;18.27;;
11522;SDS011;70090;43.208;27.904;2024-03-08T03:10:37;28.10;;;17.80;;
11522;SDS011;70090;43.208;27.904;2024-03-08T03:13:05;25.80;;;18.03;;
11522;SDS011;70090;43.208;27.904;2024-03-08T03:15:33;23.60;;;18.07;;
11522;SDS011;70090;43.208;27.904;2024-03-08T03:18:01;26.10;;;17.70;;
11522;SDS011;70090;43.208;27.904;2024-03-08T03:20:28;24.67;;;17.40;;
11522;SDS011;70090;43.208;27.904;2024-03-08T03:23:02;21.93;;;16.77;;
11522;SDS011;70090;43.208;27.904;2024-03-08T03:25:29;26.33;;;17.17;;
11522;SDS011;70090;43.208;27.904;2024-03-08T03:28:00;24.03;;;16.63;;
11522;SDS011;70090;43.208;27.904;2024-03-08T03:30:28;22.60;;;15.73;;
11522;SDS011;70090;43.208;27.904;2024-03-08T03:32:58;21.17;;;16.83;;
11522;SDS011;70090;43.208;27.904;2024-03-08T03:35:26;23.77;;;16.50;;
11522;SDS011;70090;43.208;27.904;2024-03-08T03:37:54;21.50;;;15.60;;
11522;SDS011;70090;43.208;27.904;2024-03-08T03:40:32;24.67;;;16.97;;
11522;SDS011;70090;43.208;27.904;2024-03-08T03:42:59;23.47;;;17.03;;
11522;SDS011;70090;43.208;27.904;2024-03-08T03:45:26;27.03;;;18.27;;
11522;SDS011;70090;43.208;27.904;2024-03-08T03:47:55;20.60;;;16.53;;
11522;SDS011;70090;43.208;27.904;2024-03-08T03:50:22;26.27;;;17.67;;
11522;SDS011;70090;43.208;27.904;2024-03-08T03:52:49;26.37;;;18.07;;
11522;SDS011;70090;43.208;27.904;2024-03-08T03:55:16;23.20;;;17.70;;
11522;SDS011;70090;43.208;27.904;2024-03-08T03:57:44;27.13;;;19.03;;
11522;SDS011;70090;43.208;27.904;2024-03-08T04:00:12;25.37;;;17.93;;
11522;SDS011;70090;43.208;27.904;2024-03-08T04:02:40;27.23;;;17.40;;
11522;SDS011;70090;43.208;27.904;2024-03-08T04:05:09;24.20;;;17.40;;
11522;SDS011;70090;43.208;27.904;2024-03-08T04:07:37;23.90;;;17.37;;
11522;SDS011;70090;43.208;27.904;2024-03-08T04:10:05;23.97;;;17.40;;
11522;SDS011;70090;43.208;27.904;2024-03-08T04:12:36;24.43;;;18.03;;
11522;SDS011;70090;43.208;27.904;2024-03-08T04:15:04;26.47;;;17.90;;
11522;SDS011;70090;43.208;27.904;2024-03-08T04:17:32;25.67;;;18.27;;
11522;SDS011;70090;43.208;27.904;2024-03-08T04:20:01;25.20;;;18.10;;
11522;SDS011;70090;43.208;27.904;2024-03-08T04:22:35;25.33;;;18.23;;
11522;SDS011;70090;43.208;27.904;2024-03-08T04:25:02;24.10;;;17.33;;
11522;SDS011;70090;43.208;27.904;2024-03-08T04:27:29;25.03;;;17.47;;
11522;SDS011;70090;43.208;27.904;2024-03-08T04:29:58;26.83;;;18.23;;
11522;SDS011;70090;43.208;27.904;2024-03-08T04:32:25;22.93;;;18.03;;
11522;SDS011;70090;43.208;27.904;2024-03-08T04:34:54;24.13;;;17.60;;
11522;SDS011;70090;43.208;27.904;2024-03-08T04:37:21;24.63;;;18.57;;
11522;SDS011;70090;43.208;27.904;2024-03-08T04:39:50;25.07;;;18.30;;
11522;SDS011;70090;43.208;27.904;2024-03-08T04:42:17;26.23;;;18.70;;
11522;SDS011;70090;43.208;27.904;2024-03-08T04:44:45;24.63;;;18.37;;
11522;SDS011;70090;43.208;27.904;2024-03-08T04:47:12;26.57;;;18.33;;
11522;SDS011;70090;43.208;27.904;2024-03-08T04:49:39;26.93;;;18.67;;
11522;SDS011;70090;43.208;27.904;2024-03-08T04:52:06;28.93;;;18.57;;
11522;SDS011;70090;43.208;27.904;2024-03-08T04:54:33;26.33;;;18.43;;
11522;SDS011;70090;43.208;27.904;2024-03-08T04:57:02;27.80;;;18.80;;
11522;SDS011;70090;43.208;27.904;2024-03-08T04:59:30;24.03;;;18.00;;
11522;SDS011;70090;43.208;27.904;2024-03-08T05:01:57;26.03;;;18.73;;
11522;SDS011;70090;43.208;27.904;2024-03-08T05:04:24;27.37;;;19.13;;
11522;SDS011;70090;43.208;27.904;2024-03-08T05:06:51;24.07;;;18.00;;
11522;SDS011;70090;43.208;27.904;2024-03-08T05:09:18;28.43;;;19.00;;
11522;SDS011;70090;43.208;27.904;2024-03-08T05:11:45;25.37;;;18.67;;
11522;SDS011;70090;43.208;27.904;2024-03-08T05:14:15;27.77;;;19.40;;
11522;SDS011;70090;43.208;27.904;2024-03-08T05:16:45;32.73;;;21.17;;
11522;SDS011;70090;43.208;27.904;2024-03-08T05:19:13;27.17;;;19.37;;
11522;SDS011;70090;43.208;27.904;2024-03-08T05:21:42;30.00;;;19.47;;
11522;SDS011;70090;43.208;27.904;2024-03-08T05:24:10;28.53;;;20.53;;
11522;SDS011;70090;43.208;27.904;2024-03-08T05:26:38;28.70;;;19.17;;
11522;SDS011;70090;43.208;27.904;2024-03-08T05:29:05;27.07;;;19.33;;
11522;SDS011;70090;43.208;27.904;2024-03-08T05:31:36;27.33;;;18.93;;
11522;SDS011;70090;43.208;27.904;2024-03-08T05:34:09;31.53;;;20.07;;
11522;SDS011;70090;43.208;27.904;2024-03-08T05:36:36;27.90;;;19.50;;
11522;SDS011;70090;43.208;27.904;2024-03-08T05:39:03;28.60;;;20.37;;
11522;SDS011;70090;43.208;27.904;2024-03-08T05:41:31;28.67;;;21.10;;
11522;SDS011;70090;43.208;27.904;2024-03-08T05:43:58;28.27;;;20.37;;
11522;SDS011;70090;43.208;27.904;2024-03-08T05:46:25;29.57;;;20.53;;
11522;SDS011;70090;43.208;27.904;2024-03-08T05:48:54;29.50;;;19.00;;
11522;SDS011;70090;43.208;27.904;2024-03-08T05:51:23;29.97;;;19.43;;
11522;SDS011;70090;43.208;27.904;2024-03-08T05:53:51;28.83;;;19.37;;
11522;SDS011;70090;43.208;27.904;2024-03-08T05:56:18;28.03;;;20.07;;
11522;SDS011;70090;43.208;27.904;2024-03-08T05:58:45;28.60;;;19.73;;
11522;SDS011;70090;43.208;27.904;2024-03-08T06:01:14;30.83;;;20.53;;
11522;SDS011;70090;43.208;27.904;2024-03-08T06:03:41;30.93;;;20.03;;
11522;SDS011;70090;43.208;27.904;2024-03-08T06:06:11;27.37;;;20.03;;
11522;SDS011;70090;43.208;27.904;2024-03-08T06:08:38;27.80;;;19.73;;
11522;SDS011;70090;43.208;27.904;2024-03-08T06:11:08;28.20;;;19.53;;
11522;SDS011;70090;43.208;27.904;2024-03-08T06:13:35;29.73;;;19.30;;
11522;SDS011;70090;43.208;27.904;2024-03-08T06:16:02;28.77;;;19.67;;
11522;SDS011;70090;43.208;27.904;2024-03-08T06:18:29;26.97;;;18.60;;
11522;SDS011;70090;43.208;27.904;2024-03-08T06:20:56;26.83;;;18.70;;
11522;SDS011;70090;43.208;27.904;2024-03-08T06:23:25;25.83;;;18.53;;
11522;SDS011;70090;43.208;27.904;2024-03-08T06:25:53;27.47;;;18.57;;
11522;SDS011;70090;43.208;27.904;2024-03-08T06:28:20;26.80;;;18.27;;
11522;SDS011;70090;43.208;27.904;2024-03-08T06:30:47;25.77;;;17.30;;
11522;SDS011;70090;43.208;27.904;2024-03-08T06:33:15;26.17;;;17.67;;
11522;SDS011;70090;43.208;27.904;2024-03-08T06:35:43;21.30;;;15.93;;
11522;SDS011;70090;43.208;27.904;2024-03-08T06:38:10;27.80;;;17.50;;
11522;SDS011;70090;43.208;27.904;2024-03-08T06:40:39;26.30;;;16.97;;
11522;SDS011;70090;43.208;27.904;2024-03-08T06:43:06;25.13;;;16.80;;
11522;SDS011;70090;43.208;27.904;2024-03-08T06:45:33;19.90;;;15.17;;
11522;SDS011;70090;43.208;27.904;2024-03-08T06:48:02;22.10;;;16.23;;
11522;SDS011;70090;43.208;27.904;2024-03-08T06:50:34;21.83;;;16.67;;
11522;SDS011;70090;43.208;27.904;2024-03-08T06:53:02;21.67;;;16.00;;
11522;SDS011;70090;43.208;27.904;2024-03-08T06:55:29;19.73;;;15.93;;
11522;SDS011;70090;43.208;27.904;2024-03-08T06:57:59;22.27;;;16.17;;
11522;SDS011;70090;43.208;27.904;2024-03-08T07:00:26;22.90;;;15.63;;
11522;SDS011;70090;43.208;27.904;2024-03-08T07:02:55;20.40;;;13.93;;
11522;SDS011;70090;43.208;27.904;2024-03-08T07:05:26;20.57;;;14.60;;
11522;SDS011;70090;43.208;27.904;2024-03-08T07:07:53;19.77;;;15.30;;
11522;SDS011;70090;43.208;27.904;2024-03-08T07:10:20;20.67;;;15.13;;
11522;SDS011;70090;43.208;27.904;2024-03-08T07:12:49;19.60;;;14.90;;
11522;SDS011;70090;43.208;27.904;2024-03-08T07:15:20;23.13;;;15.57;;
11522;SDS011;70090;43.208;27.904;2024-03-08T07:17:48;21.23;;;15.00;;
11522;SDS011;70090;43.208;27.904;2024-03-08T07:20:17;19.53;;;14.53;;
11522;SDS011;70090;43.208;27.904;2024-03-08T07:22:45;22.77;;;15.07;;
11522;SDS011;70090;43.208;27.904;2024-03-08T07:25:16;21.00;;;15.47;;
11522;SDS011;70090;43.208;27.904;2024-03-08T07:27:46;26.10;;;16.63;;
11522;SDS011;70090;43.208;27.904;2024-03-08T07:30:14;25.80;;;16.87;;
11522;SDS011;70090;43.208;27.904;2024-03-08T07:33:05;27.00;;;16.97;;
11522;SDS011;70090;43.208;27.904;2024-03-08T07:35:33;24.00;;;16.30;;
11522;SDS011;70090;43.208;27.904;2024-03-08T07:38:02;22.73;;;16.80;;
11522;SDS011;70090;43.208;27.904;2024-03-08T07:40:30;29.37;;;18.33;;
11522;SDS011;70090;43.208;27.904;2024-03-08T07:42:57;29.30;;;19.10;;
11522;SDS011;70090;43.208;27.904;2024-03-08T07:45:25;23.37;;;16.73;;
11522;SDS011;70090;43.208;27.904;2024-03-08T07:47:52;25.87;;;17.23;;
11522;SDS011;70090;43.208;27.904;2024-03-08T07:50:22;21.10;;;16.10;;
11522;SDS011;70090;43.208;27.904;2024-03-08T07:52:49;24.90;;;16.47;;
11522;SDS011;70090;43.208;27.904;2024-03-08T07:55:16;23.87;;;18.07;;
11522;SDS011;70090;43.208;27.904;2024-03-08T07:57:44;29.07;;;20.03;;
11522;SDS011;70090;43.208;27.904;2024-03-08T08:00:13;25.57;;;18.33;;
11522;SDS011;70090;43.208;27.904;2024-03-08T08:02:43;29.27;;;17.43;;
11522;SDS011;70090;43.208;27.904;2024-03-08T08:05:10;29.37;;;18.30;;
11522;SDS011;70090;43.208;27.904;2024-03-08T08:07:40;28.40;;;19.17;;
11522;SDS011;70090;43.208;27.904;2024-03-08T08:10:11;28.00;;;18.77;;
11522;SDS011;70090;43.208;27.904;2024-03-08T08:12:43;31.67;;;20.13;;
11522;SDS011;70090;43.208;27.904;2024-03-08T08:15:11;27.90;;;20.03;;
11522;SDS011;70090;43.208;27.904;2024-03-08T08:17:38;26.43;;;18.93;;
11522;SDS011;70090;43.208;27.904;2024-03-08T08:20:05;22.17;;;17.63;;
11522;SDS011;70090;43.208;27.904;2024-03-08T08:22:33;27.47;;;17.93;;
11522;SDS011;70090;43.208;27.904;2024-03-08T08:25:02;24.30;;;16.87;;
11522;SDS011;70090;43.208;27.904;2024-03-08T08:27:29;27.17;;;19.40;;
11522;SDS011;70090;43.208;27.904;2024-03-08T08:29:56;21.57;;;16.47;;
11522;SDS011;70090;43.208;27.904;2024-03-08T08:32:23;28.53;;;19.07;;
11522;SDS011;70090;43.208;27.904;2024-03-08T08:34:50;29.23;;;19.23;;
11522;SDS011;70090;43.208;27.904;2024-03-08T08:37:17;25.47;;;17.87;;
11522;SDS011;70090;43.208;27.904;2024-03-08T08:39:44;26.43;;;17.27;;
11522;SDS011;70090;43.208;27.904;2024-03-08T08:42:12;24.70;;;18.50;;
11522;SDS011;70090;43.208;27.904;2024-03-08T08:44:40;20.73;;;16.53;;
11522;SDS011;70090;43.208;27.904;2024-03-08T08:47:07;20.57;;;15.67;;
11522;SDS011;70090;43.208;27.904;2024-03-08T08:49:34;26.17;;;16.77;;
11522;SDS011;70090;43.208;27.904;2024-03-08T08:52:01;23.93;;;16.40;;
11522;SDS011;70090;43.208;27.904;2024-03-08T08:54:28;25.53;;;17.93;;
11522;SDS011;70090;43.208;27.904;2024-03-08T08:56:56;25.60;;;17.53;;
11522;SDS011;70090;43.208;27.904;2024-03-08T08:59:25;23.83;;;16.63;;
11522;SDS011;70090;43.208;27.904;2024-03-08T09:01:52;18.73;;;14.50;;
11522;SDS011;70090;43.208;27.904;2024-03-08T09:04:20;19.50;;;14.07;;
11522;SDS011;70090;43.208;27.904;2024-03-08T09:06:48;24.07;;;15.57;;
11522;SDS011;70090;43.208;27.904;2024-03-08T09:09:15;20.73;;;14.50;;
11522;SDS011;70090;43.208;27.904;2024-03-08T09:11:42;25.47;;;16.13;;
11522;SDS011;70090;43.208;27.904;2024-03-08T09:14:09;20.07;;;14.47;;
11522;SDS011;70090;43.208;27.904;2024-03-08T09:16:38;23.43;;;15.47;;
11522;SDS011;70090;43.208;27.904;2024-03-08T09:19:06;21.83;;;15.00;;
11522;SDS011;70090;43.208;27.904;2024-03-08T09:21:36;20.63;;;15.20;;
11522;SDS011;70090;43.208;27.904;2024-03-08T09:24:05;23.00;;;16.03;;
11522;SDS011;70090;43.208;27.904;2024-03-08T09:26:33;24.50;;;17.10;;
11522;SDS011;70090;43.208;27.904;2024-03-08T09:28:59;22.80;;;16.33;;
11522;SDS011;70090;43.208;27.904;2024-03-08T09:31:26;21.90;;;16.60;;
11522;SDS011;70090;43.208;27.904;2024-03-08T09:33:54;27.47;;;17.77;;
11522;SDS011;70090;43.208;27.904;2024-03-08T09:36:21;27.20;;;17.80;;
11522;SDS011;70090;43.208;27.904;2024-03-08T09:38:48;26.10;;;17.20;;
11522;SDS011;70090;43.208;27.904;2024-03-08T09:41:16;27.73;;;17.90;;
11522;SDS011;70090;43.208;27.904;2024-03-08T09:43:43;25.17;;;19.00;;
11522;SDS011;70090;43.208;27.904;2024-03-08T09:46:12;26.53;;;17.37;;
11522;SDS011;70090;43.208;27.904;2024-03-08T09:48:40;30.27;;;19.00;;
11522;SDS011;70090;43.208;27.904;2024-03-08T09:51:09;28.67;;;18.33;;
11522;SDS011;70090;43.208;27.904;2024-03-08T09:53:40;24.77;;;18.13;;
11522;SDS011;70090;43.208;27.904;2024-03-08T09:56:07;25.70;;;18.57;;
11522;SDS011;70090;43.208;27.904;2024-03-08T09:58:34;24.77;;;18.20;;
11522;SDS011;70090;43.208;27.904;2024-03-08T10:01:19;24.07;;;17.33;;
11522;SDS011;70090;43.208;27.904;2024-03-08T10:03:47;24.63;;;17.90;;
11522;SDS011;70090;43.208;27.904;2024-03-08T10:06:18;25.73;;;18.97;;
11522;SDS011;70090;43.208;27.904;2024-03-08T10:08:49;29.53;;;18.83;;
11522;SDS011;70090;43.208;27.904;2024-03-08T10:11:17;26.63;;;17.43;;
11522;SDS011;70090;43.208;27.904;2024-03-08T10:13:44;26.63;;;18.70;;
11522;SDS011;70090;43.208;27.904;2024-03-08T10:16:12;28.73;;;18.60;;
11522;SDS011;70090;43.208;27.904;2024-03-08T10:18:39;24.77;;;18.50;;
11522;SDS011;70090;43.208;27.904;2024-03-08T10:21:07;31.63;;;19.57;;
11522;SDS011;70090;43.208;27.904;2024-03-08T10:23:37;29.80;;;21.10;;
11522;SDS011;70090;43.208;27.904;2024-03-08T10:26:11;29.97;;;19.53;;
11522;SDS011;70090;43.208;27.904;2024-03-08T10:28:41;28.43;;;20.03;;
11522;SDS011;70090;43.208;27.904;2024-03-08T10:31:08;31.93;;;20.13;;
11522;SDS011;70090;43.208;27.904;2024-03-08T10:33:35;30.37;;;20.20;;
11522;SDS011;70090;43.208;27.904;2024-03-08T10:36:05;28.73;;;17.13;;
11522;SDS011;70090;43.208;27.904;2024-03-08T10:38:34;30.37;;;18.30;;
11522;SDS011;70090;43.208;27.904;2024-03-08T10:41:05;31.57;;;22.27;;
11522;SDS011;70090;43.208;27.904;2024-03-08T10:43:39;37.53;;;23.40;;
11522;SDS011;70090;43.208;27.904;2024-03-08T10:46:16;28.37;;;19.20;;
11522;SDS011;70090;43.208;27.904;2024-03-08T10:48:53;32.57;;;20.97;;
11522;SDS011;70090;43.208;27.904;2024-03-08T10:51:24;31.90;;;20.57;;
11522;SDS011;70090;43.208;27.904;2024-03-08T10:53:53;29.27;;;19.80;;
11522;SDS011;70090;43.208;27.904;2024-03-08T10:56:25;31.90;;;19.73;;
11522;SDS011;70090;43.208;27.904;2024-03-08T10:58:53;28.33;;;18.93;;
11522;SDS011;70090;43.208;27.904;2024-03-08T11:01:21;30.33;;;20.17;;
11522;SDS011;70090;43.208;27.904;2024-03-08T11:03:49;28.87;;;18.83;;
11522;SDS011;70090;43.208;27.904;2024-03-08T11:06:18;31.53;;;20.10;;
11522;SDS011;70090;43.208;27.904;2024-03-08T11:08:49;25.17;;;17.47;;
11522;SDS011;70090;43.208;27.904;2024-03-08T11:11:23;31.20;;;17.80;;
11522;SDS011;70090;43.208;27.904;2024-03-08T11:14:00;31.67;;;17.87;;
11522;SDS011;70090;43.208;27.904;2024-03-08T11:16:39;27.17;;;17.70;;
11522;SDS011;70090;43.208;27.904;2024-03-08T11:19:26;28.27;;;18.43;;
11522;SDS011;70090;43.208;27.904;2024-03-08T11:22:00;28.00;;;18.60;;
11522;SDS011;70090;43.208;27.904;2024-03-08T11:24:39;28.87;;;18.73;;
11522;SDS011;70090;43.208;27.904;2024-03-08T11:27:08;29.63;;;17.97;;
11522;SDS011;70090;43.208;27.904;2024-03-08T11:29:37;24.87;;;17.50;;
11522;SDS011;70090;43.208;27.904;2024-03-08T11:32:05;29.30;;;18.57;;
11522;SDS011;70090;43.208;27.904;2024-03-08T11:34:34;24.90;;;18.63;;
11522;SDS011;70090;43.208;27.904;2024-03-08T11:37:03;32.07;;;19.07;;
11522;SDS011;70090;43.208;27.904;2024-03-08T11:39:35;32.13;;;19.17;;
11522;SDS011;70090;43.208;27.904;2024-03-08T11:42:03;32.43;;;18.60;;
11522;SDS011;70090;43.208;27.904;2024-03-08T11:44:33;29.13;;;18.67;;
11522;SDS011;70090;43.208;27.904;2024-03-08T11:47:01;30.00;;;18.93;;
11522;SDS011;70090;43.208;27.904;2024-03-08T11:49:31;30.17;;;18.10;;
11522;SDS011;70090;43.208;27.904;2024-03-08T11:51:59;29.03;;;18.10;;
11522;SDS011;70090;43.208;27.904;2024-03-08T11:54:26;31.07;;;19.13;;
11522;SDS011;70090;43.208;27.904;2024-03-08T11:56:55;26.90;;;17.67;;
11522;SDS011;70090;43.208;27.904;2024-03-08T11:59:25;27.63;;;17.17;;
11522;SDS011;70090;43.208;27.904;2024-03-08T12:02:01;30.43;;;18.10;;
11522;SDS011;70090;43.208;27.904;2024-03-08T12:04:29;47.20;;;26.67;;
11522;SDS011;70090;43.208;27.904;2024-03-08T12:06:59;34.83;;;21.50;;
11522;SDS011;70090;43.208;27.904;2024-03-08T12:09:27;33.47;;;19.60;;
11522;SDS011;70090;43.208;27.904;2024-03-08T12:11:54;28.23;;;17.00;;
11522;SDS011;70090;43.208;27.904;2024-03-08T12:14:21;32.00;;;17.90;;
11522;SDS011;70090;43.208;27.904;2024-03-08T12:16:50;30.07;;;17.13;;
11522;SDS011;70090;43.208;27.904;2024-03-08T12:19:19;31.87;;;17.53;;
11522;SDS011;70090;43.208;27.904;2024-03-08T12:21:46;25.40;;;18.00;;
11522;SDS011;70090;43.208;27.904;2024-03-08T12:24:15;29.00;;;18.07;;
11522;SDS011;70090;43.208;27.904;2024-03-08T12:26:45;34.87;;;21.57;;
11522;SDS011;70090;43.208;27.904;2024-03-08T12:29:14;33.27;;;21.37;;
11522;SDS011;70090;43.208;27.904;2024-03-08T12:31:43;35.73;;;19.53;;
11522;SDS011;70090;43.208;27.904;2024-03-08T12:34:11;36.47;;;19.97;;
11522;SDS011;70090;43.208;27.904;2024-03-08T12:36:45;32.07;;;20.17;;
11522;SDS011;70090;43.208;27.904;2024-03-08T12:39:15;26.33;;;17.20;;
11522;SDS011;70090;43.208;27.904;2024-03-08T12:41:43;26.43;;;16.33;;
11522;SDS011;70090;43.208;27.904;2024-03-08T12:44:12;26.77;;;17.17;;
11522;SDS011;70090;43.208;27.904;2024-03-08T12:46:39;29.23;;;16.13;;
11522;SDS011;70090;43.208;27.904;2024-03-08T12:49:09;26.40;;;16.40;;
11522;SDS011;70090;43.208;27.904;2024-03-08T12:51:37;31.13;;;17.33;;
11522;SDS011;70090;43.208;27.904;2024-03-08T12:54:06;26.63;;;15.87;;
11522;SDS011;70090;43.208;27.904;2024-03-08T12:56:34;29.50;;;17.27;;
11522;SDS011;70090;43.208;27.904;2024-03-08T12:59:02;33.13;;;17.87;;
11522;SDS011;70090;43.208;27.904;2024-03-08T13:01:31;31.90;;;19.07;;
11522;SDS011;70090;43.208;27.904;2024-03-08T13:03:58;28.33;;;18.00;;
11522;SDS011;70090;43.208;27.904;2024-03-08T13:06:27;26.77;;;16.70;;
11522;SDS011;70090;43.208;27.904;2024-03-08T13:08:54;25.43;;;16.80;;
11522;SDS011;70090;43.208;27.904;2024-03-08T13:11:22;29.13;;;17.53;;
11522;SDS011;70090;43.208;27.904;2024-03-08T13:13:49;27.13;;;16.73;;
11522;SDS011;70090;43.208;27.904;2024-03-08T13:16:17;25.73;;;15.90;;
11522;SDS011;70090;43.208;27.904;2024-03-08T13:18:45;33.13;;;19.13;;
11522;SDS011;70090;43.208;27.904;2024-03-08T13:21:13;30.73;;;17.47;;
11522;SDS011;70090;43.208;27.904;2024-03-08T13:23:44;32.43;;;21.23;;
11522;SDS011;70090;43.208;27.904;2024-03-08T13:26:15;27.73;;;17.17;;
11522;SDS011;70090;43.208;27.904;2024-03-08T13:28:44;29.70;;;18.37;;
11522;SDS011;70090;43.208;27.904;2024-03-08T13:31:13;27.17;;;17.30;;
11522;SDS011;70090;43.208;27.904;2024-03-08T13:33:41;27.53;;;18.63;;
11522;SDS011;70090;43.208;27.904;2024-03-08T13:36:11;25.73;;;18.20;;
11522;SDS011;70090;43.208;27.904;2024-03-08T13:38:42;29.57;;;18.07;;
11522;SDS011;70090;43.208;27.904;2024-03-08T13:41:10;25.80;;;17.27;;
11522;SDS011;70090;43.208;27.904;2024-03-08T13:43:39;30.00;;;17.27;;
11522;SDS011;70090;43.208;27.904;2024-03-08T13:46:08;29.93;;;17.93;;
11522;SDS011;70090;43.208;27.904;2024-03-08T13:48:36;26.00;;;17.63;;
11522;SDS011;70090;43.208;27.904;2024-03-08T13:51:04;29.57;;;17.57;;
11522;SDS011;70090;43.208;27.904;2024-03-08T13:53:32;29.97;;;17.90;;
11522;SDS011;70090;43.208;27.904;2024-03-08T13:56:00;27.20;;;16.93;;
11522;SDS011;70090;43.208;27.904;2024-03-08T13:58:28;30.13;;;18.07;;
11522;SDS011;70090;43.208;27.904;2024-03-08T14:00:55;24.60;;;16.40;;
11522;SDS011;70090;43.208;27.904;2024-03-08T14:03:23;26.67;;;17.43;;
11522;SDS011;70090;43.208;27.904;2024-03-08T14:05:51;31.87;;;18.33;;
11522;SDS011;70090;43.208;27.904;2024-03-08T14:08:18;25.63;;;16.70;;
11522;SDS011;70090;43.208;27.904;2024-03-08T14:10:45;34.00;;;18.20;;
11522;SDS011;70090;43.208;27.904;2024-03-08T14:13:14;28.23;;;17.47;;
11522;SDS011;70090;43.208;27.904;2024-03-08T14:15:43;28.87;;;16.10;;